createdAt,value
2022-12-27T00:01:29.444Z,94664.31
2022-12-27T00:03:56.513Z,94676.88
2022-12-27T00:06:25.599Z,94683.47
2022-12-27T00:08:52.882Z,94680.91
2022-12-27T00:11:21.849Z,94691.53
2022-12-27T00:13:49.197Z,94684.22
2022-12-27T00:16:18.291Z,94695.59
2022-12-27T00:18:46.438Z,94685.97
2022-12-27T00:21:14.186Z,94688.25
2022-12-27T00:23:44.367Z,94696.16
2022-12-27T00:26:20.223Z,94705.81
2022-12-27T00:28:47.777Z,94701.41
2022-12-27T00:31:16.085Z,94702.47
2022-12-27T00:33:44.499Z,94710.78
2022-12-27T00:36:30.684Z,94709.81
2022-12-27T00:38:58.703Z,94710.41
2022-12-27T00:41:26.041Z,94724.13
2022-12-27T00:43:52.761Z,94719.56
2022-12-27T00:46:19.617Z,94727.13
2022-12-27T00:48:47.067Z,94717.84
2022-12-27T00:51:17.174Z,94724.84
2022-12-27T00:53:44.740Z,94732.53
2022-12-27T00:56:15.097Z,94738.84
2022-12-27T00:58:41.730Z,94739.53
2022-12-27T01:01:17.807Z,94732.88
2022-12-27T01:03:45.163Z,94727.97
2022-12-27T01:06:14.972Z,94725.94
2022-12-27T01:08:42.563Z,94736.22
2022-12-27T01:11:10.660Z,94735.41
2022-12-27T01:13:39.064Z,94728.75
2022-12-27T01:16:14.346Z,94723.28
2022-12-27T01:18:41.465Z,94741.38
2022-12-27T01:21:09.926Z,94736.25
2022-12-27T01:23:37.491Z,94741.59
2022-12-27T01:26:07.233Z,94748.00
2022-12-27T01:28:34.636Z,94760.69
2022-12-27T01:31:11.572Z,94755.09
2022-12-27T01:33:38.477Z,94754.47
2022-12-27T01:36:16.173Z,94757.25
2022-12-27T01:38:43.295Z,94774.75
2022-12-27T01:41:37.135Z,94776.53
2022-12-27T01:44:37.634Z,94773.00
2022-12-27T01:47:13.628Z,94775.28
2022-12-27T01:49:53.187Z,94781.69
2022-12-27T01:52:21.660Z,94783.50
2022-12-27T01:54:48.457Z,94786.47
2022-12-27T01:57:15.412Z,94786.25
2022-12-27T01:59:42.488Z,94782.97
2022-12-27T02:02:09.424Z,94795.94
2022-12-27T02:04:36.371Z,94800.56
2022-12-27T02:07:03.125Z,94806.78
2022-12-27T02:09:53.611Z,94807.88
2022-12-27T02:12:21.279Z,94812.84
2022-12-27T02:14:49.431Z,94816.47
2022-12-27T02:17:26.374Z,94824.25
2022-12-27T02:20:12.797Z,94823.59
2022-12-27T02:23:39.689Z,94827.28
2022-12-27T02:26:33.864Z,94843.38
2022-12-27T02:29:25.085Z,94847.22
2022-12-27T02:32:00.839Z,94848.31
2022-12-27T02:34:34.585Z,94855.41
2022-12-27T02:37:08.156Z,94848.06
2022-12-27T02:39:39.217Z,94849.84
2022-12-27T02:42:26.820Z,94864.28
2022-12-27T02:45:19.597Z,94860.41
2022-12-27T02:48:06.718Z,94849.94
2022-12-27T02:51:13.307Z,94862.84
2022-12-27T02:54:18.501Z,94864.19
2022-12-27T02:57:12.094Z,94875.63
2022-12-27T03:00:19.884Z,94880.09
2022-12-27T03:03:12.063Z,94881.75
2022-12-27T03:06:35.791Z,94889.31
2022-12-27T03:09:09.458Z,94893.59
2022-12-27T03:12:10.602Z,94886.00
2022-12-27T03:15:06.127Z,94894.66
2022-12-27T03:17:40.566Z,94878.06
2022-12-27T03:20:32.628Z,94884.69
2022-12-27T03:23:20.634Z,94900.06
2022-12-27T03:25:50.684Z,94897.34
2022-12-27T03:28:41.413Z,94891.44
2022-12-27T03:31:47.782Z,94906.66
2022-12-27T03:34:32.157Z,94899.28
2022-12-27T03:37:49.026Z,94904.22
2022-12-27T03:40:34.654Z,94909.69
2022-12-27T03:43:10.972Z,94914.97
2022-12-27T03:46:15.564Z,94899.75
2022-12-27T03:48:55.404Z,94900.94
2022-12-27T03:51:24.657Z,94913.59
2022-12-27T03:53:58.567Z,94909.56
2022-12-27T03:56:25.508Z,94918.19
2022-12-27T03:58:53.117Z,94920.34
2022-12-27T04:01:19.802Z,94917.34
2022-12-27T04:03:46.588Z,94906.25
2022-12-27T04:06:13.459Z,94910.41
2022-12-27T04:08:58.411Z,94919.59
2022-12-27T04:11:43.449Z,94925.59
2022-12-27T04:14:28.628Z,94906.56
2022-12-27T04:17:13.644Z,94910.88
2022-12-27T04:19:58.610Z,94901.69
2022-12-27T04:22:43.611Z,94892.81
2022-12-27T04:25:28.971Z,94903.78
2022-12-27T04:28:13.947Z,94899.38
2022-12-27T04:30:59.566Z,94913.00
2022-12-27T04:33:44.699Z,94910.59
2022-12-27T04:36:11.439Z,94911.41
2022-12-27T04:38:38.033Z,94907.44
2022-12-27T04:41:23.599Z,94909.06
2022-12-27T04:44:22.355Z,94911.91
2022-12-27T04:47:07.850Z,94907.94
2022-12-27T04:49:53.459Z,94914.72
2022-12-27T04:52:40.712Z,94925.34
2022-12-27T04:55:24.492Z,94921.38
2022-12-27T04:57:52.374Z,94926.16
2022-12-27T05:00:39.883Z,94924.25
2022-12-27T05:03:10.553Z,94935.19
2022-12-27T05:05:39.095Z,94924.91
2022-12-27T05:08:25.132Z,94924.59
2022-12-27T05:11:10.440Z,94926.66
2022-12-27T05:13:55.742Z,94925.72
2022-12-27T05:16:22.489Z,94922.06
2022-12-27T05:18:49.371Z,94925.25
2022-12-27T05:21:16.122Z,94922.56
2022-12-27T05:24:05.417Z,94931.91
2022-12-27T05:26:33.346Z,94931.75
2022-12-27T05:29:00.481Z,94916.03
2022-12-27T05:31:28.947Z,94920.16
2022-12-27T05:33:56.241Z,94920.16
2022-12-27T05:36:23.892Z,94919.69
2022-12-27T05:38:51.442Z,94919.84
2022-12-27T05:41:18.221Z,94919.53
2022-12-27T05:43:44.908Z,94917.59
2022-12-27T05:46:14.562Z,94929.22
2022-12-27T05:48:41.859Z,94927.28
2022-12-27T05:51:18.498Z,94914.97
2022-12-27T05:53:45.636Z,94927.50
2022-12-27T05:56:15.550Z,94928.59
2022-12-27T05:58:42.994Z,94929.53
2022-12-27T06:01:11.606Z,94936.38
2022-12-27T06:03:38.727Z,94935.22
2022-12-27T06:06:08.023Z,94941.91
2022-12-27T06:08:35.151Z,94945.06
2022-12-27T06:11:09.233Z,94953.63
2022-12-27T06:13:36.622Z,94941.44
2022-12-27T06:16:05.471Z,94944.44
2022-12-27T06:18:34.036Z,94935.88
2022-12-27T06:21:02.704Z,94948.09
2022-12-27T06:23:29.526Z,94944.75
2022-12-27T06:25:56.294Z,94946.50
2022-12-27T06:28:22.994Z,94950.16
2022-12-27T06:30:50.631Z,94938.72
2022-12-27T06:33:17.269Z,94945.22
2022-12-27T06:35:43.898Z,94939.50
2022-12-27T06:38:10.520Z,94952.28
2022-12-27T06:40:37.198Z,94954.78
2022-12-27T06:43:03.864Z,94945.47
2022-12-27T06:45:30.492Z,94956.09
2022-12-27T06:47:57.206Z,94948.81
2022-12-27T06:50:24.321Z,94960.53
2022-12-27T06:52:51.000Z,94958.31
2022-12-27T06:55:17.647Z,94966.38
2022-12-27T06:57:44.327Z,94969.56
2022-12-27T07:00:13.408Z,94966.41
2022-12-27T07:02:40.752Z,94974.78
2022-12-27T07:05:07.846Z,94973.88
2022-12-27T07:07:34.599Z,94977.34
2022-12-27T07:10:01.293Z,94972.13
2022-12-27T07:12:31.816Z,94966.28
2022-12-27T07:15:05.174Z,94974.00
2022-12-27T07:17:31.879Z,94975.13
2022-12-27T07:19:58.592Z,94985.25
2022-12-27T07:22:26.493Z,94978.78
2022-12-27T07:24:53.226Z,94979.72
2022-12-27T07:27:19.850Z,94979.91
2022-12-27T07:29:46.434Z,94978.34
2022-12-27T07:32:13.326Z,94983.91
2022-12-27T07:34:40.011Z,94981.53
2022-12-27T07:37:07.565Z,94976.13
2022-12-27T07:39:34.240Z,94982.63
2022-12-27T07:42:07.765Z,94989.16
2022-12-27T07:44:34.905Z,94990.09
2022-12-27T07:47:01.571Z,94996.31
2022-12-27T07:49:28.457Z,94986.75
2022-12-27T07:51:55.255Z,94983.75
2022-12-27T07:54:22.068Z,94981.38
2022-12-27T07:56:48.899Z,94980.72
2022-12-27T07:59:15.741Z,94978.97
2022-12-27T08:02:14.677Z,94985.47
2022-12-27T08:04:41.598Z,94990.88
2022-12-27T08:07:14.078Z,94983.25
2022-12-27T08:09:43.516Z,94981.81
2022-12-27T08:12:10.970Z,94993.13
2022-12-27T08:14:37.652Z,94988.97
2022-12-27T08:17:16.965Z,94986.66
2022-12-27T08:19:43.640Z,94990.72
2022-12-27T08:22:11.251Z,94998.81
2022-12-27T08:24:38.467Z,94995.19
2022-12-27T08:27:05.199Z,95000.84
2022-12-27T08:29:31.974Z,94998.28
2022-12-27T08:32:00.047Z,95000.38
2022-12-27T08:34:26.784Z,94997.88
2022-12-27T08:36:55.622Z,94986.69
2022-12-27T08:39:23.074Z,94996.19
2022-12-27T08:41:49.932Z,95006.28
2022-12-27T08:44:16.554Z,95001.09
2022-12-27T08:46:43.282Z,95004.41
2022-12-27T08:49:09.967Z,94999.66
2022-12-27T08:51:41.215Z,94999.38
2022-12-27T08:54:08.954Z,94994.53
2022-12-27T08:56:36.095Z,94985.91
2022-12-27T08:59:03.226Z,94994.63
2022-12-27T09:01:30.026Z,94980.09
2022-12-27T09:03:56.798Z,94976.56
2022-12-27T09:06:24.633Z,94987.44
2022-12-27T09:08:54.716Z,94976.31
2022-12-27T09:11:24.266Z,94978.03
2022-12-27T09:13:51.029Z,94983.81
2022-12-27T09:16:24.204Z,94973.97
2022-12-27T09:18:53.305Z,94974.50
2022-12-27T09:21:21.982Z,94989.41
2022-12-27T09:23:49.696Z,94995.91
2022-12-27T09:26:22.038Z,95006.28
2022-12-27T09:28:49.790Z,94990.63
2022-12-27T09:31:18.359Z,95002.88
2022-12-27T09:33:45.191Z,95011.09
2022-12-27T09:36:13.159Z,95004.03
2022-12-27T09:38:41.698Z,95007.00
2022-12-27T09:42:33.199Z,95006.13
2022-12-27T09:44:26.719Z,95003.94
2022-12-27T09:47:17.402Z,95003.56
2022-12-27T09:49:54.253Z,95006.06
2022-12-27T09:52:34.193Z,95003.84
2022-12-27T09:55:10.673Z,95009.53
2022-12-27T09:57:40.648Z,95008.06
2022-12-27T10:00:15.897Z,95000.31
2022-12-27T10:02:46.846Z,95013.41
2022-12-27T10:05:23.145Z,95018.16
2022-12-27T10:08:13.859Z,95011.69
2022-12-27T10:10:43.567Z,95007.16
2022-12-27T10:13:36.231Z,94995.34
2022-12-27T10:16:14.207Z,94997.78
2022-12-27T10:18:40.958Z,94996.19
2022-12-27T10:21:37.539Z,94989.63
2022-12-27T10:24:30.331Z,94996.44
2022-12-27T10:26:57.028Z,94998.69
2022-12-27T10:29:26.064Z,94997.94
2022-12-27T10:31:52.941Z,94989.72
2022-12-27T10:34:27.005Z,94995.97
2022-12-27T10:36:53.869Z,94991.38
2022-12-27T10:39:26.968Z,94984.88
2022-12-27T10:42:25.603Z,94988.78
2022-12-27T10:44:52.230Z,94979.50
2022-12-27T10:47:18.927Z,94979.94
2022-12-27T10:50:09.338Z,94986.78
2022-12-27T10:52:36.087Z,94976.25
2022-12-27T10:55:02.823Z,94978.34
2022-12-27T10:57:33.895Z,94979.72
2022-12-27T11:00:22.208Z,94978.69
2022-12-27T11:03:03.348Z,94982.84
2022-12-27T11:05:32.090Z,94982.22
2022-12-27T11:07:58.831Z,94977.34
2022-12-27T11:10:31.447Z,94975.97
2022-12-27T11:13:07.027Z,94976.56
2022-12-27T11:15:36.710Z,94969.47
2022-12-27T11:18:18.735Z,94962.09
2022-12-27T11:20:52.951Z,94964.50
2022-12-27T11:23:23.091Z,94962.00
2022-12-27T11:25:52.668Z,94955.59
2022-12-27T11:28:43.537Z,94962.72
2022-12-27T11:31:14.433Z,94960.06
2022-12-27T11:33:49.881Z,94959.97
2022-12-27T11:36:27.577Z,94954.28
2022-12-27T11:38:54.774Z,94950.28
2022-12-27T11:41:45.240Z,94952.97
2022-12-27T11:44:22.215Z,94948.31
2022-12-27T11:47:13.424Z,94946.22
2022-12-27T11:49:53.098Z,94946.00
2022-12-27T11:52:45.777Z,94939.38
2022-12-27T11:55:39.941Z,94939.53
2022-12-27T11:58:21.530Z,94948.09
2022-12-27T12:01:07.239Z,94944.34
2022-12-27T12:03:40.082Z,94946.09
2022-12-27T12:06:15.773Z,94939.06
2022-12-27T12:09:00.148Z,94936.81
2022-12-27T12:11:43.376Z,94936.44
2022-12-27T12:14:13.037Z,94936.78
2022-12-27T12:17:14.222Z,94940.88
2022-12-27T12:20:00.099Z,94943.31
2022-12-27T12:22:38.687Z,94942.13
2022-12-27T12:25:49.885Z,94944.88
2022-12-27T12:28:57.148Z,94940.41
2022-12-27T12:31:36.776Z,94937.69
2022-12-27T12:34:17.440Z,94934.69
2022-12-27T12:37:08.339Z,94936.41
2022-12-27T12:39:37.992Z,94932.41
2022-12-27T12:42:07.545Z,94923.28
2022-12-27T12:44:41.910Z,94924.44
2022-12-27T12:47:30.218Z,94926.31
2022-12-27T12:50:27.908Z,94925.31
2022-12-27T12:53:31.952Z,94921.06
2022-12-27T12:56:28.555Z,94921.91
2022-12-27T12:59:14.012Z,94917.19
2022-12-27T13:01:53.957Z,94920.88
2022-12-27T13:04:42.941Z,94924.75
2022-12-27T13:07:22.216Z,94925.19
2022-12-27T13:10:05.736Z,94919.94
2022-12-27T13:12:47.473Z,94925.69
2022-12-27T13:15:29.805Z,94922.56
2022-12-27T13:17:59.325Z,94912.44
2022-12-27T13:21:02.611Z,94919.34
2022-12-27T13:23:59.236Z,94916.56
2022-12-27T13:26:35.287Z,94917.78
2022-12-27T13:29:21.216Z,94923.44
2022-12-27T13:31:59.134Z,94925.59
2022-12-27T13:34:50.517Z,94930.03
2022-12-27T13:37:25.266Z,94925.91
2022-12-27T13:40:10.887Z,94927.41
2022-12-27T13:43:09.531Z,94920.75
2022-12-27T13:45:58.203Z,94929.50
2022-12-27T13:48:36.796Z,94921.97
2022-12-27T13:51:12.395Z,94926.13
2022-12-27T13:53:50.226Z,94925.25
2022-12-27T13:56:58.969Z,94919.16
2022-12-27T13:59:51.131Z,94919.38
2022-12-27T14:02:55.043Z,94926.84
2022-12-27T14:05:37.340Z,94922.69
2022-12-27T14:08:22.364Z,94919.94
2022-12-27T14:10:55.327Z,94922.31
2022-12-27T14:13:34.771Z,94922.13
2022-12-27T14:16:21.620Z,94924.94
2022-12-27T14:19:09.403Z,94922.81
2022-12-27T14:21:52.812Z,94932.66
2022-12-27T14:24:40.926Z,94928.44
2022-12-27T14:27:34.789Z,94923.78
2022-12-27T14:30:22.519Z,94922.81
2022-12-27T14:32:55.057Z,94927.59
2022-12-27T14:35:38.758Z,94923.66
2022-12-27T14:38:21.731Z,94916.53
2022-12-27T14:41:00.330Z,94911.69
2022-12-27T14:43:54.583Z,94916.91
2022-12-27T14:46:59.290Z,94923.09
2022-12-27T14:49:56.811Z,94921.78
2022-12-27T14:53:01.844Z,94919.41
2022-12-27T14:55:31.309Z,94925.81
2022-12-27T14:58:22.287Z,94921.16
2022-12-27T15:01:31.253Z,94921.00
2022-12-27T15:04:23.935Z,94921.97
2022-12-27T15:07:29.110Z,94915.09
2022-12-27T15:10:11.058Z,94917.81
2022-12-27T15:13:12.585Z,94916.47
2022-12-27T15:16:10.139Z,94916.28
2022-12-27T15:19:01.748Z,94924.56
2022-12-27T15:21:52.071Z,94919.09
2022-12-27T15:24:29.989Z,94922.47
2022-12-27T15:27:25.639Z,94911.19
2022-12-27T15:30:04.641Z,94913.59
2022-12-27T15:32:53.558Z,94909.56
2022-12-27T15:35:41.373Z,94904.38
2022-12-27T15:38:39.145Z,94905.06
2022-12-27T15:41:08.562Z,94902.25
2022-12-27T15:44:09.261Z,94901.78
2022-12-27T15:46:54.299Z,94900.78
2022-12-27T15:49:50.538Z,94898.81
2022-12-27T15:52:31.422Z,94898.25
2022-12-27T15:55:16.053Z,94896.56
2022-12-27T15:57:56.847Z,94902.19
2022-12-27T16:00:23.447Z,94898.13
2022-12-27T16:02:51.913Z,94900.19
2022-12-27T16:05:25.707Z,94893.94
2022-12-27T16:07:58.078Z,94894.06
2022-12-27T16:10:36.142Z,94895.44
2022-12-27T16:13:11.562Z,94893.41
2022-12-27T16:15:45.230Z,94885.50
2022-12-27T16:18:41.530Z,94874.88
2022-12-27T16:21:22.413Z,94869.38
2022-12-27T16:23:56.130Z,94863.84
2022-12-27T16:26:27.479Z,94866.66
2022-12-27T16:29:00.341Z,94862.72
2022-12-27T16:31:30.079Z,94857.09
2022-12-27T16:33:59.244Z,94852.47
2022-12-27T16:36:31.635Z,94856.53
2022-12-27T16:39:27.053Z,94863.28
2022-12-27T16:41:56.687Z,94868.78
2022-12-27T16:44:26.462Z,94861.03
2022-12-27T16:46:56.226Z,94861.13
2022-12-27T16:49:44.757Z,94862.59
2022-12-27T16:52:17.239Z,94862.44
2022-12-27T16:55:02.977Z,94860.34
2022-12-27T16:57:40.887Z,94864.19
2022-12-27T17:00:13.603Z,94863.47
2022-12-27T17:02:44.434Z,94866.94
2022-12-27T17:05:13.907Z,94865.03
2022-12-27T17:07:52.451Z,94859.78
2022-12-27T17:10:24.871Z,94870.72
2022-12-27T17:13:03.188Z,94880.63
2022-12-27T17:15:30.668Z,94878.56
2022-12-27T17:18:09.056Z,94883.97
2022-12-27T17:20:37.977Z,94880.94
2022-12-27T17:23:05.823Z,94879.25
2022-12-27T17:25:44.721Z,94881.94
2022-12-27T17:28:25.771Z,94876.72
2022-12-27T17:31:06.157Z,94878.50
2022-12-27T17:34:05.262Z,94875.09
2022-12-27T17:36:38.059Z,94879.56
2022-12-27T17:39:07.387Z,94870.06
2022-12-27T17:42:11.560Z,94874.88
2022-12-27T17:44:50.336Z,94865.41
2022-12-27T17:47:33.059Z,94868.00
2022-12-27T17:50:05.525Z,94867.22
2022-12-27T17:52:51.032Z,94865.81
2022-12-27T17:55:42.647Z,94857.41
2022-12-27T17:58:17.217Z,94854.56
2022-12-27T18:00:50.055Z,94856.00
2022-12-27T18:03:17.563Z,94857.97
2022-12-27T18:05:46.492Z,94846.09
2022-12-27T18:08:30.183Z,94847.06
2022-12-27T18:10:59.186Z,94847.91
2022-12-27T18:13:29.721Z,94839.03
2022-12-27T18:15:58.030Z,94834.44
2022-12-27T18:18:29.303Z,94843.03
2022-12-27T18:21:01.741Z,94842.56
2022-12-27T18:23:28.489Z,94839.69
2022-12-27T18:26:13.197Z,94839.41
2022-12-27T18:28:41.221Z,94842.94
2022-12-27T18:31:14.065Z,94836.16
2022-12-27T18:33:57.033Z,94843.56
2022-12-27T18:36:40.706Z,94842.59
2022-12-27T18:39:25.775Z,94834.84
2022-12-27T18:41:53.971Z,94841.72
2022-12-27T18:44:44.453Z,94845.44
2022-12-27T18:47:19.032Z,94840.19
2022-12-27T18:49:46.041Z,94840.03
2022-12-27T18:52:15.861Z,94827.53
2022-12-27T18:54:42.963Z,94834.38
2022-12-27T18:57:31.852Z,94829.41
2022-12-27T19:00:13.954Z,94828.63
2022-12-27T19:02:42.727Z,94822.41
2022-12-27T19:05:23.819Z,94823.25
2022-12-27T19:08:16.665Z,94822.75
2022-12-27T19:10:49.369Z,94822.50
2022-12-27T19:13:37.877Z,94816.44
2022-12-27T19:16:05.288Z,94812.81
2022-12-27T19:18:36.038Z,94809.50
2022-12-27T19:21:05.560Z,94799.47
2022-12-27T19:23:37.448Z,94804.09
2022-12-27T19:26:21.355Z,94809.03
2022-12-27T19:29:13.588Z,94810.31
2022-12-27T19:31:43.256Z,94819.19
2022-12-27T19:34:16.223Z,94826.16
2022-12-27T19:36:45.754Z,94816.03
2022-12-27T19:39:23.567Z,94819.25
2022-12-27T19:41:51.277Z,94810.63
2022-12-27T19:44:18.878Z,94808.56
2022-12-27T19:46:45.818Z,94808.00
2022-12-27T19:51:59.672Z,94813.34
2022-12-27T19:54:26.553Z,94816.34
2022-12-27T19:56:53.494Z,94814.16
2022-12-27T19:59:24.208Z,94806.59
2022-12-27T20:01:52.517Z,94798.63
2022-12-27T20:04:19.540Z,94796.38
2022-12-27T20:06:48.679Z,94796.13
2022-12-27T20:09:18.543Z,94786.53
2022-12-27T20:11:45.707Z,94783.09
2022-12-27T20:14:14.596Z,94783.88
2022-12-27T20:16:41.683Z,94773.88
2022-12-27T20:19:11.611Z,94779.06
2022-12-27T20:21:40.616Z,94777.66
2022-12-27T20:24:10.888Z,94782.41
2022-12-27T20:26:37.877Z,94772.66
2022-12-27T20:29:04.934Z,94775.31
2022-12-27T20:31:31.728Z,94766.94
2022-12-27T20:33:58.491Z,94760.03
2022-12-27T20:36:25.184Z,94760.19
2022-12-27T20:38:51.867Z,94762.56
2022-12-27T20:41:19.956Z,94760.19
2022-12-27T20:43:46.779Z,94764.63
2022-12-27T20:46:16.363Z,94756.22
2022-12-27T20:48:45.187Z,94756.41
2022-12-27T20:51:33.286Z,94761.28
2022-12-27T20:54:02.570Z,94752.44
2022-12-27T20:56:29.254Z,94759.88
2022-12-27T20:58:56.034Z,94749.75
2022-12-27T21:01:26.948Z,94749.09
2022-12-27T21:03:56.000Z,94745.63
2022-12-27T21:06:28.456Z,94750.56
2022-12-27T21:08:57.785Z,94753.56
2022-12-27T21:11:31.340Z,94750.25
2022-12-27T21:14:00.210Z,94753.06
2022-12-27T21:16:28.989Z,94754.19
2022-12-27T21:18:56.403Z,94764.97
2022-12-27T21:21:28.318Z,94764.97
2022-12-27T21:23:59.369Z,94761.78
2022-12-27T21:26:29.164Z,94764.13
2022-12-27T21:28:56.797Z,94766.72
2022-12-27T21:31:23.761Z,94768.91
2022-12-27T21:33:50.903Z,94765.44
2022-12-27T21:36:23.273Z,94757.69
2022-12-27T21:38:50.629Z,94756.75
2022-12-27T21:41:20.391Z,94755.78
2022-12-27T21:43:48.993Z,94745.97
2022-12-27T21:46:15.797Z,94751.03
2022-12-27T21:48:42.525Z,94750.41
2022-12-27T21:51:17.591Z,94748.66
2022-12-27T21:53:44.935Z,94745.00
2022-12-27T21:56:13.679Z,94741.38
2022-12-27T21:58:41.570Z,94743.75
2022-12-27T22:01:11.790Z,94741.22
2022-12-27T22:03:40.538Z,94741.53
2022-12-27T22:06:21.670Z,94745.16
2022-12-27T22:08:50.453Z,94734.84
2022-12-27T22:11:20.678Z,94735.47
2022-12-27T22:13:47.456Z,94731.69
2022-12-27T22:16:21.279Z,94730.44
2022-12-27T22:18:48.978Z,94728.53
2022-12-27T22:21:18.486Z,94728.53
2022-12-27T22:23:48.533Z,94731.88
2022-12-27T22:26:17.550Z,94726.78
2022-12-27T22:28:44.963Z,94724.88
2022-12-27T22:31:15.194Z,94726.63
2022-12-27T22:33:42.137Z,94735.59
2022-12-27T22:36:19.941Z,94731.19
2022-12-27T22:38:49.678Z,94727.22
2022-12-27T22:41:37.255Z,94724.03
2022-12-27T22:44:06.431Z,94722.00
2022-12-27T22:49:21.069Z,94724.34
2022-12-27T22:51:47.749Z,94724.81
2022-12-27T22:54:14.422Z,94707.88
2022-12-27T22:56:42.327Z,94705.53
2022-12-27T22:59:11.583Z,94693.81
2022-12-27T23:01:39.389Z,94700.59
2022-12-27T23:04:07.195Z,94705.00
2022-12-27T23:06:35.549Z,94704.09
2022-12-27T23:09:02.930Z,94707.56
2022-12-27T23:11:32.192Z,94719.09
2022-12-27T23:14:01.605Z,94715.31
2022-12-27T23:16:34.672Z,94709.31
2022-12-27T23:19:01.321Z,94713.44
2022-12-27T23:21:27.991Z,94711.94
2022-12-27T23:23:54.643Z,94714.53
2022-12-27T23:26:22.967Z,94715.56
2022-12-27T23:28:51.584Z,94701.72
2022-12-27T23:31:20.416Z,94700.44
2022-12-27T23:33:47.143Z,94701.06
2022-12-27T23:36:14.251Z,94705.63
2022-12-27T23:38:42.068Z,94699.00
2022-12-27T23:41:13.430Z,94709.22
2022-12-27T23:43:56.408Z,94696.84
2022-12-27T23:46:31.406Z,94693.06
2022-12-27T23:49:00.174Z,94691.47
2022-12-27T23:51:28.305Z,94689.47
2022-12-27T23:53:55.120Z,94683.81
2022-12-27T23:56:30.571Z,94692.19
2022-12-27T23:58:59.659Z,94683.31
